VOZ19 YBCS-YSSY
Flight info
| Callsign | VOZ19 |
|---|---|
| Flight time | 2h 33m |
| Altitude | 37000 |
| Route | CS Y177 AKROM Y153 ROKUU H652 BOREE |
| Aircraft | B38M/M-SDE1FGHILORVWXY/HB1 |
Departure
| Time | 2026-05-06 00:23 |
|---|---|
| Airport | Cairns International Airport (YBCS) |
Arrival
| Time | 2026-05-06 02:56 |
|---|---|
| Airport | Sydney Kingsford Smith International Airport (YSSY) |
| Time | Latitude | Longitude | Altitude | Speed | Heading |
|---|---|---|---|---|---|
| 2026-05-06 00:06 | -16.87827 | 145.75312 | 19 ft | 0 kts | 68° |
| 2026-05-06 00:14 | -16.87828 | 145.75310 | 19 ft | 2 kts | 68° |
| 2026-05-06 00:14 | -16.87837 | 145.75285 | 21 ft | 4 kts | 70° |
| 2026-05-06 00:14 | -16.87847 | 145.75259 | 20 ft | 3 kts | 69° |
| 2026-05-06 00:14 | -16.87856 | 145.75238 | 19 ft | 4 kts | 51° |
| 2026-05-06 00:15 | -16.87876 | 145.75221 | 22 ft | 4 kts | 20° |
| 2026-05-06 00:15 | -16.87896 | 145.75217 | 19 ft | 1 kts | 4° |
| 2026-05-06 00:15 | -16.87899 | 145.75217 | 19 ft | 0 kts | 4° |
| 2026-05-06 00:18 | -16.87898 | 145.75217 | 19 ft | 1 kts | 4° |
| 2026-05-06 00:18 | -16.87875 | 145.75208 | 19 ft | 5 kts | 296° |
| 2026-05-06 00:18 | -16.87887 | 145.75163 | 20 ft | 9 kts | 244° |
| 2026-05-06 00:18 | -16.87842 | 145.75106 | 19 ft | 16 kts | 346° |
| 2026-05-06 00:19 | -16.87696 | 145.75051 | 19 ft | 27 kts | 339° |
| 2026-05-06 00:19 | -16.87511 | 145.74974 | 20 ft | 29 kts | 336° |
| 2026-05-06 00:19 | -16.87331 | 145.74893 | -1 ft | 27 kts | 336° |
| 2026-05-06 00:19 | -16.87156 | 145.74812 | -1 ft | 26 kts | 336° |
| 2026-05-06 00:20 | -16.87052 | 145.74750 | -1 ft | 11 kts | 297° |
| 2026-05-06 00:20 | -16.87066 | 145.74665 | -2 ft | 14 kts | 246° |
| 2026-05-06 00:20 | -16.87058 | 145.74568 | -3 ft | 15 kts | 328° |
| 2026-05-06 00:20 | -16.86956 | 145.74523 | -2 ft | 17 kts | 337° |
| 2026-05-06 00:21 | -16.86845 | 145.74473 | 0 ft | 18 kts | 336° |
| 2026-05-06 00:21 | -16.86724 | 145.74418 | 1 ft | 19 kts | 336° |
| 2026-05-06 00:21 | -16.86612 | 145.74416 | 2 ft | 10 kts | 6° |
| 2026-05-06 00:21 | -16.86590 | 145.74369 | 3 ft | 9 kts | 231° |
| 2026-05-06 00:22 | -16.86648 | 145.74380 | 2 ft | 11 kts | 153° |
| 2026-05-06 00:22 | -16.86856 | 145.74478 | 0 ft | 68 kts | 156° |
| 2026-05-06 00:22 | -16.87513 | 145.74777 | 17 ft | 136 kts | 156° |
| 2026-05-06 00:22 | -16.88550 | 145.75243 | 183 ft | 178 kts | 157° |
| 2026-05-06 00:23 | -16.89733 | 145.75802 | 858 ft | 192 kts | 153° |
| 2026-05-06 00:23 | -16.90653 | 145.76793 | 1783 ft | 184 kts | 110° |
| 2026-05-06 00:23 | -16.90780 | 145.78075 | 2866 ft | 183 kts | 84° |
| 2026-05-06 00:23 | -16.90186 | 145.79300 | 3509 ft | 199 kts | 46° |
| 2026-05-06 00:24 | -16.89066 | 145.80157 | 4369 ft | 201 kts | 40° |
| 2026-05-06 00:24 | -16.87936 | 145.81035 | 5141 ft | 203 kts | 41° |
| 2026-05-06 00:24 | -16.86806 | 145.81926 | 5973 ft | 204 kts | 42° |
| 2026-05-06 00:24 | -16.85668 | 145.82832 | 6747 ft | 207 kts | 41° |
| 2026-05-06 00:25 | -16.84687 | 145.83977 | 7207 ft | 220 kts | 65° |
| 2026-05-06 00:25 | -16.84372 | 145.85579 | 7580 ft | 236 kts | 96° |
| 2026-05-06 00:25 | -16.84937 | 145.87272 | 7918 ft | 259 kts | 126° |
| 2026-05-06 00:25 | -16.86332 | 145.88491 | 8570 ft | 272 kts | 151° |
| 2026-05-06 00:26 | -16.88046 | 145.89470 | 9055 ft | 290 kts | 149° |
| 2026-05-06 00:26 | -16.89824 | 145.90552 | 9701 ft | 298 kts | 149° |
| 2026-05-06 00:26 | -16.91643 | 145.91652 | 10355 ft | 308 kts | 150° |
| 2026-05-06 00:26 | -16.93516 | 145.92806 | 10776 ft | 325 kts | 150° |
| 2026-05-06 00:27 | -16.95524 | 145.94048 | 11276 ft | 337 kts | 150° |
| 2026-05-06 00:27 | -16.97523 | 145.95280 | 12047 ft | 338 kts | 150° |
| 2026-05-06 00:27 | -16.99573 | 145.96527 | 12693 ft | 346 kts | 150° |
| 2026-05-06 00:27 | -17.01661 | 145.97807 | 13423 ft | 349 kts | 151° |
| 2026-05-06 00:28 | -17.03773 | 145.99094 | 14066 ft | 355 kts | 150° |
| 2026-05-06 00:28 | -17.05910 | 146.00403 | 14756 ft | 356 kts | 151° |
| 2026-05-06 00:28 | -17.08068 | 146.01718 | 15371 ft | 362 kts | 150° |
| 2026-05-06 00:28 | -17.10252 | 146.03052 | 16020 ft | 365 kts | 150° |
| 2026-05-06 00:29 | -17.12457 | 146.04399 | 16629 ft | 369 kts | 150° |
| 2026-05-06 00:29 | -17.14691 | 146.05762 | 17236 ft | 374 kts | 151° |
| 2026-05-06 00:29 | -17.16949 | 146.07143 | 17838 ft | 378 kts | 151° |
| 2026-05-06 00:29 | -17.19225 | 146.08534 | 18405 ft | 382 kts | 151° |
| 2026-05-06 00:30 | -17.21532 | 146.09945 | 18900 ft | 385 kts | 151° |
| 2026-05-06 00:30 | -17.23862 | 146.11369 | 19402 ft | 389 kts | 151° |
| 2026-05-06 00:30 | -17.26205 | 146.12802 | 19892 ft | 393 kts | 151° |
| 2026-05-06 00:30 | -17.28571 | 146.14251 | 20394 ft | 395 kts | 152° |
| 2026-05-06 00:31 | -17.30955 | 146.15710 | 20896 ft | 398 kts | 152° |
| 2026-05-06 00:31 | -17.33357 | 146.17180 | 21379 ft | 401 kts | 152° |
| 2026-05-06 00:31 | -17.35781 | 146.18665 | 21867 ft | 405 kts | 152° |
| 2026-05-06 00:31 | -17.38215 | 146.20156 | 22337 ft | 408 kts | 152° |
| 2026-05-06 00:32 | -17.40676 | 146.21664 | 22797 ft | 411 kts | 152° |
| 2026-05-06 00:32 | -17.43151 | 146.23180 | 23264 ft | 414 kts | 152° |
| 2026-05-06 00:32 | -17.45642 | 146.24707 | 23699 ft | 417 kts | 152° |
| 2026-05-06 00:32 | -17.48152 | 146.26247 | 24070 ft | 420 kts | 152° |
| 2026-05-06 00:33 | -17.50684 | 146.27800 | 24452 ft | 422 kts | 153° |
| 2026-05-06 00:33 | -17.53224 | 146.29359 | 24829 ft | 425 kts | 153° |
| 2026-05-06 00:33 | -17.55751 | 146.30909 | 25193 ft | 427 kts | 153° |
| 2026-05-06 00:33 | -17.58328 | 146.32491 | 25550 ft | 430 kts | 153° |
| 2026-05-06 00:34 | -17.60918 | 146.34083 | 25897 ft | 433 kts | 153° |
| 2026-05-06 00:34 | -17.63526 | 146.35685 | 26277 ft | 436 kts | 153° |
| 2026-05-06 00:34 | -17.66154 | 146.37299 | 26626 ft | 438 kts | 153° |
| 2026-05-06 00:34 | -17.68788 | 146.38918 | 26975 ft | 441 kts | 153° |
| 2026-05-06 00:35 | -17.71447 | 146.40553 | 27322 ft | 443 kts | 153° |
| 2026-05-06 00:35 | -17.73247 | 146.41661 | 27552 ft | 445 kts | 153° |
| 2026-05-06 00:35 | -17.76795 | 146.43844 | 27996 ft | 448 kts | 153° |
| 2026-05-06 00:35 | -17.78616 | 146.44965 | 28221 ft | 450 kts | 153° |
| 2026-05-06 00:36 | -17.81324 | 146.46632 | 28550 ft | 452 kts | 154° |
| 2026-05-06 00:36 | -17.84049 | 146.48310 | 28875 ft | 455 kts | 154° |
| 2026-05-06 00:36 | -17.86782 | 146.49993 | 29184 ft | 457 kts | 154° |
| 2026-05-06 00:36 | -17.89535 | 146.51690 | 29516 ft | 460 kts | 154° |
| 2026-05-06 00:37 | -17.92298 | 146.53393 | 29810 ft | 462 kts | 154° |
| 2026-05-06 00:37 | -17.95082 | 146.55110 | 30109 ft | 465 kts | 154° |
| 2026-05-06 00:37 | -17.97870 | 146.56830 | 30362 ft | 467 kts | 154° |
| 2026-05-06 00:37 | -18.00681 | 146.58565 | 30617 ft | 469 kts | 154° |
| 2026-05-06 00:38 | -18.03499 | 146.60304 | 30863 ft | 471 kts | 154° |
| 2026-05-06 00:38 | -18.06334 | 146.62054 | 31107 ft | 473 kts | 154° |
| 2026-05-06 00:38 | -18.09143 | 146.63790 | 31343 ft | 476 kts | 154° |
| 2026-05-06 00:38 | -18.12000 | 146.65555 | 31582 ft | 478 kts | 154° |
| 2026-05-06 00:39 | -18.14875 | 146.67333 | 31820 ft | 480 kts | 154° |
| 2026-05-06 00:39 | -18.17797 | 146.69140 | 32059 ft | 482 kts | 154° |
| 2026-05-06 00:39 | -18.20696 | 146.70933 | 32297 ft | 484 kts | 154° |
| 2026-05-06 00:39 | -18.23607 | 146.72735 | 32518 ft | 487 kts | 154° |
| 2026-05-06 00:40 | -18.26490 | 146.74519 | 32751 ft | 489 kts | 154° |
| 2026-05-06 00:40 | -18.29426 | 146.76338 | 32979 ft | 491 kts | 154° |
| 2026-05-06 00:40 | -18.32372 | 146.78163 | 33196 ft | 493 kts | 154° |
| 2026-05-06 00:40 | -18.35402 | 146.79838 | 33393 ft | 488 kts | 165° |
| 2026-05-06 00:41 | -18.38644 | 146.80809 | 33595 ft | 485 kts | 171° |
| 2026-05-06 00:41 | -18.41923 | 146.81720 | 33724 ft | 489 kts | 171° |
| 2026-05-06 00:41 | -18.45215 | 146.82620 | 33976 ft | 490 kts | 171° |
| 2026-05-06 00:41 | -18.48520 | 146.83505 | 34165 ft | 491 kts | 171° |
| 2026-05-06 00:42 | -18.51842 | 146.84389 | 34423 ft | 491 kts | 172° |
| 2026-05-06 00:42 | -18.55144 | 146.85265 | 34663 ft | 492 kts | 172° |
| 2026-05-06 00:42 | -18.58460 | 146.86145 | 34905 ft | 492 kts | 172° |
| 2026-05-06 00:42 | -18.61778 | 146.87026 | 35154 ft | 491 kts | 172° |
| 2026-05-06 00:43 | -18.65103 | 146.87909 | 35403 ft | 491 kts | 172° |
| 2026-05-06 00:43 | -18.68416 | 146.88789 | 35646 ft | 491 kts | 172° |
| 2026-05-06 00:43 | -18.71724 | 146.89669 | 35880 ft | 491 kts | 172° |
| 2026-05-06 00:43 | -18.75042 | 146.90551 | 36111 ft | 491 kts | 172° |
| 2026-05-06 00:44 | -18.78353 | 146.91432 | 36343 ft | 491 kts | 172° |
| 2026-05-06 00:44 | -18.81666 | 146.92313 | 36566 ft | 491 kts | 172° |
| 2026-05-06 00:44 | -18.84981 | 146.93196 | 36784 ft | 491 kts | 172° |
| 2026-05-06 00:44 | -18.88295 | 146.94078 | 36957 ft | 492 kts | 172° |
| 2026-05-06 00:45 | -18.91622 | 146.94965 | 37059 ft | 493 kts | 172° |
| 2026-05-06 00:45 | -18.98252 | 146.96733 | 37038 ft | 490 kts | 172° |
| 2026-05-06 00:46 | -19.04826 | 146.98487 | 37052 ft | 491 kts | 172° |
| 2026-05-06 00:46 | -19.11450 | 147.00256 | 37039 ft | 491 kts | 172° |
| 2026-05-06 00:47 | -19.18076 | 147.02027 | 37042 ft | 492 kts | 172° |
| 2026-05-06 00:47 | -19.24710 | 147.03800 | 37033 ft | 491 kts | 172° |
| 2026-05-06 00:48 | -19.31337 | 147.05575 | 37048 ft | 492 kts | 172° |
| 2026-05-06 00:48 | -19.37972 | 147.07353 | 37043 ft | 492 kts | 172° |
| 2026-05-06 00:49 | -19.44608 | 147.09132 | 37046 ft | 492 kts | 173° |
| 2026-05-06 00:49 | -19.51252 | 147.10916 | 37044 ft | 493 kts | 173° |
| 2026-05-06 00:50 | -19.57898 | 147.12701 | 37042 ft | 492 kts | 173° |
| 2026-05-06 00:50 | -19.64542 | 147.14487 | 37045 ft | 492 kts | 173° |
| 2026-05-06 00:51 | -19.71187 | 147.16275 | 37047 ft | 492 kts | 173° |
| 2026-05-06 00:51 | -19.77831 | 147.18064 | 37046 ft | 493 kts | 173° |
| 2026-05-06 00:52 | -19.84483 | 147.19858 | 37046 ft | 493 kts | 173° |
| 2026-05-06 00:52 | -19.91132 | 147.21652 | 37044 ft | 493 kts | 173° |
| 2026-05-06 00:53 | -19.97740 | 147.23436 | 37049 ft | 493 kts | 173° |
| 2026-05-06 00:53 | -20.04391 | 147.25233 | 37064 ft | 493 kts | 173° |
| 2026-05-06 00:54 | -20.11048 | 147.27035 | 37050 ft | 494 kts | 173° |
| 2026-05-06 00:54 | -20.17718 | 147.28840 | 37049 ft | 494 kts | 173° |
| 2026-05-06 00:55 | -20.24389 | 147.30648 | 37050 ft | 494 kts | 173° |
| 2026-05-06 00:55 | -20.31057 | 147.32456 | 37054 ft | 494 kts | 173° |
| 2026-05-06 00:56 | -20.37725 | 147.34266 | 37051 ft | 495 kts | 174° |
| 2026-05-06 00:56 | -20.44398 | 147.36080 | 37054 ft | 495 kts | 174° |
| 2026-05-06 00:57 | -20.51061 | 147.37890 | 37043 ft | 494 kts | 174° |
| 2026-05-06 00:57 | -20.57729 | 147.39706 | 37062 ft | 495 kts | 174° |
| 2026-05-06 00:58 | -20.64399 | 147.41523 | 37068 ft | 495 kts | 174° |
| 2026-05-06 00:58 | -20.71072 | 147.43343 | 37047 ft | 495 kts | 174° |
| 2026-05-06 00:59 | -20.77740 | 147.45162 | 37053 ft | 494 kts | 174° |
| 2026-05-06 00:59 | -20.84412 | 147.46986 | 37050 ft | 495 kts | 174° |
| 2026-05-06 01:00 | -20.91042 | 147.48799 | 37054 ft | 495 kts | 174° |
| 2026-05-06 01:00 | -20.97722 | 147.50627 | 37061 ft | 495 kts | 174° |
| 2026-05-06 01:01 | -21.04394 | 147.52455 | 37060 ft | 495 kts | 174° |
| 2026-05-06 01:01 | -21.11067 | 147.54284 | 37056 ft | 495 kts | 174° |
| 2026-05-06 01:02 | -21.17789 | 147.56129 | 37062 ft | 495 kts | 174° |
| 2026-05-06 01:02 | -21.24421 | 147.57951 | 37059 ft | 495 kts | 174° |
| 2026-05-06 01:03 | -21.31101 | 147.59788 | 37060 ft | 495 kts | 174° |
| 2026-05-06 01:03 | -21.37773 | 147.61624 | 37058 ft | 495 kts | 174° |
| 2026-05-06 01:04 | -21.44446 | 147.63462 | 37059 ft | 495 kts | 174° |
| 2026-05-06 01:04 | -21.51121 | 147.65303 | 37067 ft | 495 kts | 174° |
| 2026-05-06 01:05 | -21.57793 | 147.67144 | 37049 ft | 494 kts | 174° |
| 2026-05-06 01:05 | -21.64458 | 147.68985 | 37068 ft | 495 kts | 174° |
| 2026-05-06 01:06 | -21.71122 | 147.70828 | 37072 ft | 495 kts | 174° |
| 2026-05-06 01:06 | -21.77789 | 147.72673 | 37073 ft | 495 kts | 174° |
| 2026-05-06 01:07 | -21.84457 | 147.74521 | 37081 ft | 495 kts | 175° |
| 2026-05-06 01:07 | -21.91077 | 147.76357 | 37072 ft | 495 kts | 175° |
| 2026-05-06 01:08 | -21.97726 | 147.78202 | 37067 ft | 494 kts | 175° |
| 2026-05-06 01:08 | -22.04393 | 147.80055 | 37072 ft | 494 kts | 175° |
| 2026-05-06 01:09 | -22.11052 | 147.81907 | 37092 ft | 494 kts | 175° |
| 2026-05-06 01:09 | -22.17712 | 147.83761 | 37070 ft | 494 kts | 175° |
| 2026-05-06 01:10 | -22.24375 | 147.85618 | 37075 ft | 494 kts | 175° |
| 2026-05-06 01:10 | -22.31040 | 147.87477 | 37072 ft | 494 kts | 175° |
| 2026-05-06 01:11 | -22.37695 | 147.89335 | 37076 ft | 494 kts | 175° |
| 2026-05-06 01:11 | -22.44365 | 147.91199 | 37084 ft | 494 kts | 175° |
| 2026-05-06 01:12 | -22.51019 | 147.93060 | 37087 ft | 494 kts | 175° |
| 2026-05-06 01:12 | -22.57675 | 147.94924 | 37088 ft | 494 kts | 175° |
| 2026-05-06 01:13 | -22.64326 | 147.96788 | 37076 ft | 494 kts | 175° |
| 2026-05-06 01:13 | -22.70950 | 147.98647 | 37098 ft | 494 kts | 175° |
| 2026-05-06 01:14 | -22.80867 | 148.01435 | 37083 ft | 494 kts | 175° |
| 2026-05-06 01:14 | -22.87439 | 148.03284 | 37093 ft | 493 kts | 175° |
| 2026-05-06 01:15 | -22.94073 | 148.05152 | 37094 ft | 493 kts | 175° |
| 2026-05-06 01:15 | -23.00714 | 148.07024 | 37114 ft | 494 kts | 175° |
| 2026-05-06 01:16 | -23.07353 | 148.08898 | 37083 ft | 493 kts | 175° |
| 2026-05-06 01:16 | -23.13986 | 148.10772 | 37083 ft | 493 kts | 175° |
| 2026-05-06 01:17 | -23.20571 | 148.12633 | 37083 ft | 493 kts | 175° |
| 2026-05-06 01:17 | -23.27218 | 148.14515 | 37082 ft | 493 kts | 175° |
| 2026-05-06 01:18 | -23.33868 | 148.16399 | 37079 ft | 493 kts | 175° |
| 2026-05-06 01:18 | -23.40502 | 148.18281 | 37086 ft | 493 kts | 175° |
| 2026-05-06 01:19 | -23.47147 | 148.20168 | 37082 ft | 493 kts | 175° |
| 2026-05-06 01:19 | -23.53788 | 148.22056 | 37082 ft | 493 kts | 175° |
| 2026-05-06 01:20 | -23.60423 | 148.23944 | 37099 ft | 493 kts | 175° |
| 2026-05-06 01:20 | -23.67065 | 148.25836 | 37090 ft | 493 kts | 175° |
| 2026-05-06 01:21 | -23.73703 | 148.27729 | 37090 ft | 493 kts | 175° |
| 2026-05-06 01:21 | -23.79197 | 148.29297 | 37088 ft | 493 kts | 175° |
| 2026-05-06 01:22 | -23.85838 | 148.31194 | 37091 ft | 493 kts | 175° |
| 2026-05-06 01:22 | -23.93549 | 148.33399 | 37090 ft | 494 kts | 175° |
| 2026-05-06 01:23 | -24.00200 | 148.35304 | 37094 ft | 494 kts | 175° |
| 2026-05-06 01:23 | -24.05768 | 148.36900 | 37094 ft | 494 kts | 175° |
| 2026-05-06 01:24 | -24.12417 | 148.38807 | 37096 ft | 494 kts | 175° |
| 2026-05-06 01:24 | -24.19064 | 148.40717 | 37097 ft | 494 kts | 175° |
| 2026-05-06 01:25 | -24.25713 | 148.42628 | 37101 ft | 494 kts | 175° |
| 2026-05-06 01:25 | -24.32323 | 148.44531 | 37103 ft | 494 kts | 175° |
| 2026-05-06 01:26 | -24.38967 | 148.46445 | 37099 ft | 494 kts | 175° |
| 2026-05-06 01:26 | -24.45583 | 148.48353 | 37129 ft | 494 kts | 175° |
| 2026-05-06 01:27 | -24.52238 | 148.50276 | 37103 ft | 494 kts | 175° |
| 2026-05-06 01:27 | -24.58874 | 148.52194 | 37107 ft | 495 kts | 175° |
| 2026-05-06 01:28 | -24.65529 | 148.54120 | 37108 ft | 495 kts | 175° |
| 2026-05-06 01:28 | -24.72187 | 148.56049 | 37109 ft | 494 kts | 175° |
| 2026-05-06 01:29 | -24.78258 | 148.57809 | 37109 ft | 495 kts | 175° |
| 2026-05-06 01:29 | -24.84926 | 148.59746 | 37109 ft | 495 kts | 175° |
| 2026-05-06 01:30 | -24.91533 | 148.61666 | 37118 ft | 495 kts | 175° |
| 2026-05-06 01:30 | -24.98192 | 148.63604 | 37120 ft | 495 kts | 175° |
| 2026-05-06 01:31 | -25.04859 | 148.65546 | 37141 ft | 495 kts | 175° |
| 2026-05-06 01:31 | -25.11530 | 148.67492 | 37120 ft | 496 kts | 175° |
| 2026-05-06 01:32 | -25.18200 | 148.69439 | 37124 ft | 496 kts | 175° |
| 2026-05-06 01:32 | -25.24874 | 148.71390 | 37126 ft | 496 kts | 175° |
| 2026-05-06 01:33 | -25.31538 | 148.73341 | 37166 ft | 496 kts | 175° |
| 2026-05-06 01:33 | -25.38190 | 148.75289 | 37130 ft | 496 kts | 175° |
| 2026-05-06 01:34 | -25.44859 | 148.77245 | 37128 ft | 497 kts | 175° |
| 2026-05-06 01:34 | -25.51190 | 148.79103 | 37149 ft | 496 kts | 175° |
| 2026-05-06 01:35 | -25.57875 | 148.81068 | 37132 ft | 497 kts | 175° |
| 2026-05-06 01:35 | -25.64565 | 148.83038 | 37140 ft | 498 kts | 175° |
| 2026-05-06 01:36 | -25.71256 | 148.85010 | 37128 ft | 498 kts | 176° |
| 2026-05-06 01:36 | -25.77909 | 148.86974 | 37142 ft | 498 kts | 175° |
| 2026-05-06 01:37 | -25.84650 | 148.88965 | 37136 ft | 498 kts | 175° |
| 2026-05-06 01:37 | -25.91308 | 148.90935 | 37150 ft | 499 kts | 176° |
| 2026-05-06 01:38 | -25.98024 | 148.92922 | 37139 ft | 499 kts | 176° |
| 2026-05-06 01:38 | -26.04739 | 148.94913 | 37138 ft | 499 kts | 176° |
| 2026-05-06 01:39 | -26.11453 | 148.96905 | 37141 ft | 499 kts | 176° |
| 2026-05-06 01:39 | -26.18161 | 148.98898 | 37168 ft | 499 kts | 176° |
| 2026-05-06 01:40 | -26.24887 | 149.00900 | 37142 ft | 500 kts | 176° |
| 2026-05-06 01:40 | -26.31619 | 149.02905 | 37144 ft | 501 kts | 176° |
| 2026-05-06 01:41 | -26.38340 | 149.04909 | 37138 ft | 500 kts | 176° |
| 2026-05-06 01:41 | -26.45063 | 149.06916 | 37142 ft | 500 kts | 176° |
| 2026-05-06 01:42 | -26.51765 | 149.09187 | 37143 ft | 504 kts | 173° |
| 2026-05-06 01:42 | -26.58477 | 149.11486 | 37144 ft | 504 kts | 173° |
| 2026-05-06 01:43 | -26.65193 | 149.13779 | 37145 ft | 504 kts | 173° |
| 2026-05-06 01:43 | -26.71899 | 149.16071 | 37147 ft | 504 kts | 173° |
| 2026-05-06 01:44 | -26.78619 | 149.18371 | 37158 ft | 505 kts | 173° |
| 2026-05-06 01:44 | -26.85333 | 149.20671 | 37152 ft | 505 kts | 173° |
| 2026-05-06 01:45 | -26.92051 | 149.22976 | 37137 ft | 505 kts | 173° |
| 2026-05-06 01:45 | -26.98773 | 149.25284 | 37156 ft | 505 kts | 173° |
| 2026-05-06 01:46 | -27.05444 | 149.27578 | 37141 ft | 505 kts | 173° |
| 2026-05-06 01:46 | -27.12158 | 149.29891 | 37146 ft | 505 kts | 173° |
| 2026-05-06 01:47 | -27.18879 | 149.32208 | 37147 ft | 505 kts | 173° |
| 2026-05-06 01:47 | -27.25596 | 149.34526 | 37154 ft | 505 kts | 173° |
| 2026-05-06 01:48 | -27.32312 | 149.36848 | 37168 ft | 505 kts | 173° |
| 2026-05-06 01:48 | -27.39034 | 149.39174 | 37141 ft | 505 kts | 173° |
| 2026-05-06 01:49 | -27.45757 | 149.41504 | 37140 ft | 505 kts | 173° |
| 2026-05-06 01:49 | -27.52481 | 149.43837 | 37142 ft | 505 kts | 173° |
| 2026-05-06 01:50 | -27.59205 | 149.46173 | 37165 ft | 506 kts | 173° |
| 2026-05-06 01:50 | -27.65886 | 149.48497 | 37137 ft | 505 kts | 173° |
| 2026-05-06 01:51 | -27.72013 | 149.50630 | 37131 ft | 505 kts | 173° |
| 2026-05-06 01:51 | -27.78737 | 149.52975 | 37135 ft | 506 kts | 173° |
| 2026-05-06 01:52 | -27.85465 | 149.55325 | 37139 ft | 506 kts | 173° |
| 2026-05-06 01:52 | -27.92185 | 149.57674 | 37141 ft | 505 kts | 172° |
| 2026-05-06 01:53 | -27.98899 | 149.60024 | 37140 ft | 505 kts | 172° |
| 2026-05-06 01:53 | -28.05616 | 149.62378 | 37137 ft | 505 kts | 173° |
| 2026-05-06 01:54 | -28.12332 | 149.64736 | 37135 ft | 505 kts | 172° |
| 2026-05-06 01:54 | -28.19047 | 149.67002 | 37132 ft | 499 kts | 176° |
| 2026-05-06 01:55 | -28.25792 | 149.68904 | 37141 ft | 500 kts | 175° |
| 2026-05-06 01:55 | -28.32529 | 149.70872 | 37138 ft | 500 kts | 175° |
| 2026-05-06 01:56 | -28.39230 | 149.72837 | 37131 ft | 500 kts | 175° |
| 2026-05-06 01:56 | -28.45972 | 149.74817 | 37145 ft | 500 kts | 175° |
| 2026-05-06 01:57 | -28.52701 | 149.76795 | 37130 ft | 499 kts | 175° |
| 2026-05-06 01:57 | -28.59435 | 149.78778 | 37129 ft | 499 kts | 175° |
| 2026-05-06 01:58 | -28.66162 | 149.80761 | 37132 ft | 500 kts | 175° |
| 2026-05-06 01:58 | -28.72896 | 149.82750 | 37151 ft | 499 kts | 175° |
| 2026-05-06 01:59 | -28.79603 | 149.84732 | 37129 ft | 498 kts | 174° |
| 2026-05-06 01:59 | -28.86319 | 149.86705 | 37130 ft | 498 kts | 175° |
| 2026-05-06 02:00 | -28.93033 | 149.88681 | 37136 ft | 498 kts | 175° |
| 2026-05-06 02:00 | -28.99744 | 149.90658 | 37152 ft | 498 kts | 175° |
| 2026-05-06 02:01 | -29.06444 | 149.92635 | 37130 ft | 497 kts | 174° |
| 2026-05-06 02:01 | -29.13135 | 149.94611 | 37127 ft | 497 kts | 174° |
| 2026-05-06 02:02 | -29.19825 | 149.96590 | 37126 ft | 497 kts | 174° |
| 2026-05-06 02:02 | -29.26525 | 149.98575 | 37154 ft | 497 kts | 174° |
| 2026-05-06 02:03 | -29.33164 | 150.00544 | 37129 ft | 496 kts | 174° |
| 2026-05-06 02:03 | -29.39846 | 150.02528 | 37127 ft | 496 kts | 174° |
| 2026-05-06 02:04 | -29.46523 | 150.04514 | 37125 ft | 496 kts | 174° |
| 2026-05-06 02:04 | -29.53210 | 150.06505 | 37150 ft | 496 kts | 174° |
| 2026-05-06 02:05 | -29.59883 | 150.08494 | 37117 ft | 495 kts | 174° |
| 2026-05-06 02:05 | -29.66549 | 150.10484 | 37117 ft | 495 kts | 174° |
| 2026-05-06 02:06 | -29.73218 | 150.12479 | 37122 ft | 495 kts | 174° |
| 2026-05-06 02:06 | -29.79882 | 150.14475 | 37119 ft | 495 kts | 174° |
| 2026-05-06 02:07 | -29.86543 | 150.16472 | 37122 ft | 495 kts | 174° |
| 2026-05-06 02:07 | -29.93203 | 150.18472 | 37118 ft | 495 kts | 174° |
| 2026-05-06 02:08 | -29.99834 | 150.20467 | 37120 ft | 496 kts | 174° |
| 2026-05-06 02:08 | -30.06500 | 150.22472 | 37131 ft | 494 kts | 174° |
| 2026-05-06 02:09 | -30.13158 | 150.24482 | 37123 ft | 494 kts | 174° |
| 2026-05-06 02:09 | -30.19798 | 150.26483 | 37134 ft | 495 kts | 174° |
| 2026-05-06 02:10 | -30.26471 | 150.28504 | 37100 ft | 494 kts | 174° |
| 2026-05-06 02:10 | -30.33121 | 150.30513 | 37160 ft | 494 kts | 174° |
| 2026-05-06 02:11 | -30.39755 | 150.32528 | 37122 ft | 493 kts | 174° |
| 2026-05-06 02:11 | -30.46402 | 150.34549 | 37114 ft | 494 kts | 174° |
| 2026-05-06 02:12 | -30.53049 | 150.36569 | 37112 ft | 493 kts | 174° |
| 2026-05-06 02:12 | -30.59705 | 150.38598 | 37125 ft | 494 kts | 174° |
| 2026-05-06 02:13 | -30.66345 | 150.40620 | 37104 ft | 493 kts | 174° |
| 2026-05-06 02:13 | -30.72982 | 150.42646 | 37129 ft | 494 kts | 174° |
| 2026-05-06 02:14 | -30.79587 | 150.44667 | 37115 ft | 493 kts | 174° |
| 2026-05-06 02:14 | -30.86218 | 150.46698 | 37146 ft | 493 kts | 174° |
| 2026-05-06 02:15 | -30.92849 | 150.48732 | 37128 ft | 492 kts | 174° |
| 2026-05-06 02:15 | -30.99478 | 150.50769 | 37123 ft | 493 kts | 174° |
| 2026-05-06 02:16 | -31.06116 | 150.52811 | 37122 ft | 493 kts | 174° |
| 2026-05-06 02:16 | -31.12758 | 150.54857 | 37158 ft | 493 kts | 174° |
| 2026-05-06 02:17 | -31.19381 | 150.56901 | 37130 ft | 491 kts | 174° |
| 2026-05-06 02:17 | -31.25954 | 150.58930 | 37122 ft | 492 kts | 174° |
| 2026-05-06 02:18 | -31.32561 | 150.60974 | 37116 ft | 491 kts | 174° |
| 2026-05-06 02:18 | -31.39175 | 150.63024 | 37150 ft | 492 kts | 174° |
| 2026-05-06 02:19 | -31.45777 | 150.65072 | 37119 ft | 490 kts | 174° |
| 2026-05-06 02:19 | -31.52367 | 150.67118 | 37110 ft | 487 kts | 174° |
| 2026-05-06 02:20 | -31.62074 | 150.70142 | 37119 ft | 479 kts | 174° |
| 2026-05-06 02:21 | -31.68522 | 150.72152 | 37137 ft | 479 kts | 174° |
| 2026-05-06 02:21 | -31.74944 | 150.74157 | 37130 ft | 478 kts | 174° |
| 2026-05-06 02:22 | -31.81358 | 150.76163 | 37133 ft | 477 kts | 174° |
| 2026-05-06 02:22 | -31.87762 | 150.78165 | 37108 ft | 474 kts | 173° |
| 2026-05-06 02:22 | -31.90949 | 150.79168 | 37210 ft | 476 kts | 173° |
| 2026-05-06 02:23 | -31.94153 | 150.80169 | 37121 ft | 476 kts | 173° |
| 2026-05-06 02:23 | -32.00538 | 150.82178 | 37145 ft | 475 kts | 173° |
| 2026-05-06 02:24 | -32.06911 | 150.83685 | 37153 ft | 468 kts | 180° |
| 2026-05-06 02:24 | -32.13346 | 150.84828 | 37131 ft | 467 kts | 180° |
| 2026-05-06 02:25 | -32.19782 | 150.85957 | 37159 ft | 467 kts | 180° |
| 2026-05-06 02:25 | -32.26197 | 150.87083 | 37136 ft | 466 kts | 180° |
| 2026-05-06 02:26 | -32.32620 | 150.88211 | 37137 ft | 466 kts | 180° |
| 2026-05-06 02:26 | -32.39031 | 150.89339 | 37135 ft | 466 kts | 180° |
| 2026-05-06 02:27 | -32.45451 | 150.90471 | 37138 ft | 466 kts | 180° |
| 2026-05-06 02:27 | -32.51866 | 150.91603 | 37131 ft | 466 kts | 180° |
| 2026-05-06 02:28 | -32.57935 | 150.92675 | 37130 ft | 466 kts | 180° |
| 2026-05-06 02:28 | -32.64357 | 150.93807 | 37145 ft | 468 kts | 180° |
| 2026-05-06 02:29 | -32.70799 | 150.94955 | 37133 ft | 467 kts | 179° |
| 2026-05-06 02:29 | -32.77164 | 150.96084 | 37141 ft | 465 kts | 179° |
| 2026-05-06 02:30 | -32.83577 | 150.97225 | 37133 ft | 466 kts | 179° |
| 2026-05-06 02:30 | -32.86784 | 150.97797 | 36739 ft | 464 kts | 179° |
| 2026-05-06 02:30 | -32.89983 | 150.98363 | 36063 ft | 466 kts | 179° |
| 2026-05-06 02:30 | -32.93202 | 150.98938 | 35304 ft | 470 kts | 178° |
| 2026-05-06 02:31 | -32.96455 | 150.99519 | 34549 ft | 474 kts | 178° |
| 2026-05-06 02:31 | -32.99727 | 151.00103 | 33771 ft | 476 kts | 177° |
| 2026-05-06 02:31 | -33.03012 | 151.00691 | 32944 ft | 478 kts | 177° |
| 2026-05-06 02:31 | -33.06304 | 151.01279 | 32149 ft | 479 kts | 176° |
| 2026-05-06 02:32 | -33.09560 | 151.01862 | 31383 ft | 480 kts | 176° |
| 2026-05-06 02:32 | -33.12859 | 151.02452 | 30634 ft | 480 kts | 176° |
| 2026-05-06 02:32 | -33.16164 | 151.03044 | 29857 ft | 479 kts | 175° |
| 2026-05-06 02:32 | -33.19460 | 151.03635 | 29002 ft | 478 kts | 175° |
| 2026-05-06 02:33 | -33.22743 | 151.04224 | 28167 ft | 477 kts | 175° |
| 2026-05-06 02:33 | -33.24959 | 151.04541 | 27622 ft | 473 kts | 181° |
| 2026-05-06 02:33 | -33.31842 | 151.01790 | 25834 ft | 447 kts | 225° |
| 2026-05-06 02:34 | -33.33705 | 150.98890 | 25115 ft | 438 kts | 246° |
| 2026-05-06 02:34 | -33.34477 | 150.95429 | 24442 ft | 430 kts | 268° |
| 2026-05-06 02:34 | -33.34034 | 150.91935 | 23908 ft | 424 kts | 291° |
| 2026-05-06 02:34 | -33.32483 | 150.88984 | 23310 ft | 421 kts | 313° |
| 2026-05-06 02:35 | -33.30076 | 150.87029 | 22689 ft | 422 kts | 336° |
| 2026-05-06 02:35 | -33.28199 | 150.86456 | 22352 ft | 422 kts | 352° |
| 2026-05-06 02:35 | -33.25298 | 150.86797 | 21958 ft | 420 kts | 15° |
| 2026-05-06 02:35 | -33.21681 | 150.88419 | 21458 ft | 410 kts | 18° |
| 2026-05-06 02:36 | -33.19884 | 150.89202 | 21192 ft | 401 kts | 17° |
| 2026-05-06 02:36 | -33.17275 | 150.90219 | 20808 ft | 388 kts | 9° |
| 2026-05-06 02:36 | -33.14712 | 150.90869 | 20440 ft | 379 kts | 17° |
| 2026-05-06 02:36 | -33.12465 | 150.92469 | 20024 ft | 378 kts | 43° |
| 2026-05-06 02:37 | -33.11050 | 150.95070 | 19646 ft | 375 kts | 70° |
| 2026-05-06 02:37 | -33.10761 | 150.98108 | 19271 ft | 370 kts | 98° |
| 2026-05-06 02:37 | -33.11638 | 151.00951 | 18841 ft | 367 kts | 126° |
| 2026-05-06 02:37 | -33.13483 | 151.02987 | 18392 ft | 361 kts | 154° |
| 2026-05-06 02:38 | -33.15855 | 151.03764 | 17893 ft | 353 kts | 181° |
| 2026-05-06 02:38 | -33.18303 | 151.03773 | 17492 ft | 351 kts | 178° |
| 2026-05-06 02:38 | -33.20731 | 151.04045 | 17108 ft | 350 kts | 176° |
| 2026-05-06 02:38 | -33.23145 | 151.04389 | 16708 ft | 349 kts | 175° |
| 2026-05-06 02:39 | -33.25560 | 151.04487 | 16144 ft | 348 kts | 192° |
| 2026-05-06 02:39 | -33.27802 | 151.03514 | 15640 ft | 343 kts | 216° |
| 2026-05-06 02:39 | -33.29474 | 151.01544 | 15147 ft | 338 kts | 240° |
| 2026-05-06 02:39 | -33.30275 | 150.98944 | 14690 ft | 334 kts | 264° |
| 2026-05-06 02:40 | -33.30076 | 150.96211 | 14244 ft | 332 kts | 288° |
| 2026-05-06 02:40 | -33.28937 | 150.93842 | 13775 ft | 332 kts | 313° |
| 2026-05-06 02:40 | -33.27066 | 150.92233 | 13279 ft | 334 kts | 335° |
| 2026-05-06 02:40 | -33.24811 | 150.91613 | 12883 ft | 334 kts | 354° |
| 2026-05-06 02:41 | -33.22502 | 150.91411 | 12525 ft | 331 kts | 353° |
| 2026-05-06 02:41 | -33.20214 | 150.91169 | 12164 ft | 329 kts | 353° |
| 2026-05-06 02:41 | -33.17981 | 150.90901 | 11793 ft | 326 kts | 352° |
| 2026-05-06 02:41 | -33.15724 | 150.90792 | 11407 ft | 326 kts | 6° |
| 2026-05-06 02:42 | -33.13622 | 150.91773 | 11023 ft | 330 kts | 34° |
| 2026-05-06 02:42 | -33.12146 | 150.93848 | 10644 ft | 333 kts | 62° |
| 2026-05-06 02:42 | -33.11616 | 150.96519 | 10295 ft | 335 kts | 89° |
| 2026-05-06 02:42 | -33.12098 | 150.99214 | 9921 ft | 334 kts | 115° |
| 2026-05-06 02:43 | -33.13449 | 151.01410 | 9610 ft | 322 kts | 140° |
| 2026-05-06 02:43 | -33.15307 | 151.02656 | 9600 ft | 296 kts | 166° |
| 2026-05-06 02:43 | -33.17286 | 151.03130 | 9519 ft | 289 kts | 172° |
| 2026-05-06 02:43 | -33.19270 | 151.03489 | 9382 ft | 288 kts | 174° |
| 2026-05-06 02:44 | -33.21247 | 151.03795 | 9208 ft | 286 kts | 174° |
| 2026-05-06 02:44 | -33.23222 | 151.04107 | 9046 ft | 286 kts | 174° |
| 2026-05-06 02:44 | -33.25188 | 151.04419 | 8920 ft | 284 kts | 174° |
| 2026-05-06 02:44 | -33.27147 | 151.04734 | 8783 ft | 283 kts | 174° |
| 2026-05-06 02:45 | -33.29087 | 151.05111 | 8645 ft | 283 kts | 170° |
| 2026-05-06 02:45 | -33.31018 | 151.05569 | 8524 ft | 283 kts | 170° |
| 2026-05-06 02:45 | -33.32972 | 151.06025 | 8395 ft | 282 kts | 170° |
| 2026-05-06 02:45 | -33.34860 | 151.06461 | 8185 ft | 278 kts | 170° |
| 2026-05-06 02:46 | -33.36776 | 151.06878 | 7981 ft | 277 kts | 175° |
| 2026-05-06 02:46 | -33.38695 | 151.06948 | 7565 ft | 282 kts | 181° |
| 2026-05-06 02:46 | -33.40682 | 151.06942 | 7017 ft | 289 kts | 180° |
| 2026-05-06 02:46 | -33.42706 | 151.06948 | 6455 ft | 292 kts | 180° |
| 2026-05-06 02:47 | -33.44739 | 151.06957 | 5868 ft | 293 kts | 180° |
| 2026-05-06 02:47 | -33.46766 | 151.06973 | 5406 ft | 288 kts | 179° |
| 2026-05-06 02:47 | -33.48738 | 151.06987 | 5090 ft | 278 kts | 179° |
| 2026-05-06 02:47 | -33.50635 | 151.07003 | 4842 ft | 269 kts | 179° |
| 2026-05-06 02:48 | -33.52474 | 151.07018 | 4741 ft | 257 kts | 179° |
| 2026-05-06 02:48 | -33.54199 | 151.07122 | 4737 ft | 243 kts | 170° |
| 2026-05-06 02:48 | -33.55852 | 151.07541 | 4448 ft | 243 kts | 166° |
| 2026-05-06 02:48 | -33.57512 | 151.07986 | 4118 ft | 245 kts | 167° |
| 2026-05-06 02:49 | -33.59177 | 151.08425 | 3798 ft | 246 kts | 167° |
| 2026-05-06 02:49 | -33.60849 | 151.08861 | 3542 ft | 244 kts | 167° |
| 2026-05-06 02:49 | -33.62496 | 151.09288 | 3317 ft | 240 kts | 167° |
| 2026-05-06 02:49 | -33.64113 | 151.09705 | 3109 ft | 236 kts | 167° |
| 2026-05-06 02:50 | -33.65686 | 151.10111 | 3036 ft | 226 kts | 167° |
| 2026-05-06 02:50 | -33.67172 | 151.10495 | 3047 ft | 209 kts | 167° |
| 2026-05-06 02:50 | -33.68534 | 151.10844 | 3016 ft | 192 kts | 167° |
| 2026-05-06 02:50 | -33.69796 | 151.11170 | 2976 ft | 181 kts | 167° |
| 2026-05-06 02:51 | -33.71023 | 151.11487 | 2964 ft | 180 kts | 166° |
| 2026-05-06 02:51 | -33.72247 | 151.11811 | 2984 ft | 180 kts | 166° |
| 2026-05-06 02:51 | -33.73494 | 151.12130 | 3028 ft | 188 kts | 167° |
| 2026-05-06 02:51 | -33.74784 | 151.12461 | 3033 ft | 195 kts | 167° |
| 2026-05-06 02:52 | -33.76139 | 151.12809 | 3026 ft | 198 kts | 167° |
| 2026-05-06 02:52 | -33.77469 | 151.13152 | 3000 ft | 192 kts | 167° |
| 2026-05-06 02:52 | -33.78747 | 151.13482 | 2830 ft | 190 kts | 167° |
| 2026-05-06 02:52 | -33.80027 | 151.13812 | 2596 ft | 186 kts | 167° |
| 2026-05-06 02:53 | -33.81284 | 151.14138 | 2361 ft | 183 kts | 167° |
| 2026-05-06 02:53 | -33.82508 | 151.14454 | 2138 ft | 176 kts | 167° |
| 2026-05-06 02:53 | -33.83699 | 151.14762 | 1914 ft | 172 kts | 167° |
| 2026-05-06 02:53 | -33.84862 | 151.15064 | 1694 ft | 170 kts | 167° |
| 2026-05-06 02:54 | -33.85999 | 151.15358 | 1465 ft | 160 kts | 167° |
| 2026-05-06 02:54 | -33.87057 | 151.15632 | 1319 ft | 152 kts | 166° |
| 2026-05-06 02:54 | -33.88096 | 151.15901 | 1084 ft | 154 kts | 167° |
| 2026-05-06 02:54 | -33.89133 | 151.16166 | 916 ft | 149 kts | 167° |
| 2026-05-06 02:55 | -33.90140 | 151.16423 | 711 ft | 148 kts | 167° |
| 2026-05-06 02:55 | -33.91140 | 151.16697 | 479 ft | 146 kts | 168° |
| 2026-05-06 02:55 | -33.92118 | 151.16943 | 268 ft | 141 kts | 168° |
| 2026-05-06 02:55 | -33.93071 | 151.17193 | 66 ft | 138 kts | 168° |
| 2026-05-06 02:56 | -33.93941 | 151.17419 | 29 ft | 113 kts | 168° |
| 2026-05-06 02:56 | -33.94501 | 151.17563 | 32 ft | 46 kts | 168° |
| 2026-05-06 02:56 | -33.94795 | 151.17641 | 32 ft | 45 kts | 167° |
| 2026-05-06 02:56 | -33.95050 | 151.17707 | 30 ft | 27 kts | 168° |
| 2026-05-06 02:57 | -33.95153 | 151.17763 | 31 ft | 12 kts | 105° |
| 2026-05-06 02:57 | -33.95148 | 151.17847 | 32 ft | 10 kts | 78° |
| 2026-05-06 02:57 | -33.95119 | 151.17926 | 33 ft | 12 kts | 38° |
| 2026-05-06 02:57 | -33.95005 | 151.17919 | 33 ft | 21 kts | 347° |
| 2026-05-06 02:58 | -33.94845 | 151.17877 | 32 ft | 23 kts | 348° |
| 2026-05-06 02:58 | -33.94710 | 151.17843 | 32 ft | 13 kts | 347° |
| 2026-05-06 02:58 | -33.94677 | 151.17834 | 32 ft | 2 kts | 347° |
| 2026-05-06 02:58 | -33.94674 | 151.17833 | 32 ft | 0 kts | 347° |
| 2026-05-06 03:01 | -33.94657 | 151.17828 | 32 ft | 5 kts | 347° |
| 2026-05-06 03:01 | -33.94610 | 151.17816 | 31 ft | 10 kts | 347° |
| 2026-05-06 03:01 | -33.94543 | 151.17798 | 32 ft | 11 kts | 347° |
| 2026-05-06 03:02 | -33.94462 | 151.17774 | 32 ft | 14 kts | 346° |
| 2026-05-06 03:02 | -33.94358 | 151.17744 | 32 ft | 17 kts | 346° |
| 2026-05-06 03:02 | -33.94233 | 151.17704 | 32 ft | 19 kts | 345° |
| 2026-05-06 03:02 | -33.94095 | 151.17663 | 31 ft | 22 kts | 347° |
| 2026-05-06 03:03 | -33.93942 | 151.17620 | 31 ft | 18 kts | 347° |
| 2026-05-06 03:03 | -33.93865 | 151.17667 | 32 ft | 15 kts | 74° |
| 2026-05-06 03:03 | -33.93819 | 151.17761 | 32 ft | 13 kts | 16° |
| 2026-05-06 03:03 | -33.93724 | 151.17788 | 32 ft | 15 kts | 13° |
| 2026-05-06 03:04 | -33.93661 | 151.17807 | 32 ft | 9 kts | 13° |
| 2026-05-06 03:04 | -33.93590 | 151.17825 | 32 ft | 8 kts | 10° |
| 2026-05-06 03:04 | -33.93568 | 151.17850 | 32 ft | 4 kts | 97° |
| 2026-05-06 03:04 | -33.93573 | 151.17883 | 32 ft | 4 kts | 101° |
| 2026-05-06 03:05 | -33.93577 | 151.17903 | 32 ft | 0 kts | 101° |